createdAt,value
2017-11-09T00:00:30.565Z,101791.65
2017-11-09T00:02:33.862Z,101789.45
2017-11-09T00:04:42.745Z,101801.59
2017-11-09T00:06:46.085Z,101797.55
2017-11-09T00:08:49.391Z,101797.20
2017-11-09T00:10:52.685Z,101795.85
2017-11-09T00:12:56.018Z,101794.50
2017-11-09T00:14:59.316Z,101796.77
2017-11-09T00:17:02.622Z,101801.67
2017-11-09T00:19:05.952Z,101799.47
2017-11-09T00:21:09.318Z,101804.88
2017-11-09T00:23:12.921Z,101803.59
2017-11-09T00:25:16.311Z,101804.02
2017-11-09T00:27:19.608Z,101801.75
2017-11-09T00:29:22.989Z,101811.70
2017-11-09T00:31:26.386Z,101809.52
2017-11-09T00:33:29.677Z,101804.55
2017-11-09T00:35:32.978Z,101813.58
2017-11-09T00:37:36.315Z,101816.34
2017-11-09T00:39:39.619Z,101804.28
2017-11-09T00:41:42.913Z,101813.65
2017-11-09T00:43:46.241Z,101815.00
2017-11-09T00:45:49.541Z,101819.90
2017-11-09T00:47:52.908Z,101818.20
2017-11-09T00:49:56.236Z,101821.82
2017-11-09T00:51:59.533Z,101822.24
2017-11-09T00:54:02.831Z,101825.02
2017-11-09T00:56:06.263Z,101826.30
2017-11-09T00:58:09.565Z,101829.84
2017-11-09T01:00:12.860Z,101832.19
2017-11-09T01:02:16.197Z,101839.36
2017-11-09T01:04:19.489Z,101837.59
2017-11-09T01:06:22.784Z,101838.52
2017-11-09T01:08:26.113Z,101841.21
2017-11-09T01:10:29.486Z,101836.31
2017-11-09T01:12:32.757Z,101836.73
2017-11-09T01:14:36.179Z,101841.28
2017-11-09T01:16:39.473Z,101831.95
2017-11-09T01:18:42.820Z,101835.07
2017-11-09T01:20:46.145Z,101832.38
2017-11-09T01:22:49.437Z,101830.59
2017-11-09T01:24:52.849Z,101841.81
2017-11-09T01:26:56.228Z,101834.64
2017-11-09T01:28:59.677Z,101831.02
2017-11-09T01:31:02.962Z,101830.25
2017-11-09T01:33:06.293Z,101829.83
2017-11-09T01:35:09.603Z,101821.66
2017-11-09T01:37:13.182Z,101828.90
2017-11-09T01:39:16.554Z,101835.22
2017-11-09T01:41:19.865Z,101832.09
2017-11-09T01:43:23.257Z,101839.77
2017-11-09T01:45:26.581Z,101845.59
2017-11-09T01:47:29.889Z,101838.42
2017-11-09T01:49:33.225Z,101846.52
2017-11-09T01:51:36.590Z,101847.86
2017-11-09T01:53:39.890Z,101845.59
2017-11-09T01:55:43.187Z,101845.23
2017-11-09T01:57:46.592Z,101853.26
2017-11-09T01:59:49.977Z,101853.76
2017-11-09T02:01:53.274Z,101857.80
2017-11-09T02:03:56.652Z,101854.29
2017-11-09T02:05:59.947Z,101854.19
2017-11-09T02:08:03.254Z,101859.16
2017-11-09T02:10:07.268Z,101854.69
2017-11-09T02:12:10.560Z,101850.24
2017-11-09T02:14:13.921Z,101853.87
2017-11-09T02:16:17.255Z,101854.79
2017-11-09T02:18:20.553Z,101852.94
2017-11-09T02:20:23.857Z,101857.06
2017-11-09T02:22:27.188Z,101862.46
2017-11-09T02:24:30.486Z,101863.39
2017-11-09T02:26:33.854Z,101867.44
2017-11-09T02:28:37.183Z,101858.91
2017-11-09T02:30:40.477Z,101863.89
2017-11-09T02:32:43.782Z,101860.27
2017-11-09T02:34:47.121Z,101867.50
2017-11-09T02:36:50.420Z,101864.31
2017-11-09T02:38:53.718Z,101869.70
2017-11-09T02:40:57.058Z,101874.67
2017-11-09T02:43:00.386Z,101878.80
2017-11-09T02:45:03.774Z,101880.65
2017-11-09T02:47:07.107Z,101881.57
2017-11-09T02:49:10.459Z,101874.33
2017-11-09T02:51:13.754Z,101875.25
2017-11-09T02:53:17.083Z,101872.12
2017-11-09T02:55:20.378Z,101871.63
2017-11-09T02:57:23.678Z,101867.69
2017-11-09T02:59:27.831Z,101874.08
2017-11-09T03:01:31.128Z,101870.39
2017-11-09T03:03:34.468Z,101872.23
2017-11-09T03:05:37.770Z,101871.31
2017-11-09T03:07:41.070Z,101873.58
2017-11-09T03:09:44.425Z,101867.34
2017-11-09T03:11:47.758Z,101868.19
2017-11-09T03:13:51.157Z,101872.66
2017-11-09T03:15:54.555Z,101866.91
2017-11-09T03:17:57.872Z,101869.96
2017-11-09T03:20:01.178Z,101866.91
2017-11-09T03:22:04.514Z,101872.81
2017-11-09T03:24:07.847Z,101872.81
2017-11-09T03:26:11.153Z,101876.86
2017-11-09T03:28:14.486Z,101884.09
2017-11-09T03:30:17.894Z,101885.38
2017-11-09T03:32:21.189Z,101884.52
2017-11-09T03:34:24.565Z,101885.88
2017-11-09T03:36:27.917Z,101886.80
2017-11-09T03:38:31.218Z,101884.59
2017-11-09T03:40:34.814Z,101891.77
2017-11-09T03:42:38.233Z,101886.88
2017-11-09T03:44:41.629Z,101885.95
2017-11-09T03:46:44.927Z,101886.80
2017-11-09T03:48:48.269Z,101878.78
2017-11-09T03:50:51.570Z,101883.25
2017-11-09T03:52:54.875Z,101876.50
2017-11-09T03:54:58.237Z,101874.34
2017-11-09T03:57:01.515Z,101875.76
2017-11-09T03:59:04.833Z,101876.61
2017-11-09T04:01:08.245Z,101872.56
2017-11-09T04:03:11.545Z,101877.96
2017-11-09T04:05:14.847Z,101876.08
2017-11-09T04:07:18.213Z,101879.31
2017-11-09T04:09:21.522Z,101883.78
2017-11-09T04:11:24.899Z,101886.55
2017-11-09T04:13:28.255Z,101882.50
2017-11-09T04:15:31.558Z,101885.20
2017-11-09T04:17:34.832Z,101882.50
2017-11-09T04:19:38.149Z,101881.58
2017-11-09T04:21:41.450Z,101880.66
2017-11-09T04:23:44.838Z,101879.38
2017-11-09T04:25:48.161Z,101878.53
2017-11-09T04:27:51.457Z,101877.61
2017-11-09T04:29:54.918Z,101875.84
2017-11-09T04:31:58.309Z,101873.56
2017-11-09T04:34:01.605Z,101867.73
2017-11-09T04:36:04.928Z,101866.81
2017-11-09T04:38:08.231Z,101867.31
2017-11-09T04:40:11.573Z,101864.19
2017-11-09T04:42:14.874Z,101865.54
2017-11-09T04:44:18.211Z,101869.16
2017-11-09T04:46:21.507Z,101865.11
2017-11-09T04:48:24.807Z,101861.17
2017-11-09T04:50:28.177Z,101860.22
2017-11-09T04:52:31.455Z,101861.56
2017-11-09T04:54:34.751Z,101859.40
2017-11-09T04:56:38.089Z,101867.92
2017-11-09T04:58:41.391Z,101867.92
2017-11-09T05:00:44.734Z,101866.96
2017-11-09T05:02:48.073Z,101865.22
2017-11-09T05:04:51.392Z,101864.80
2017-11-09T05:06:54.723Z,101871.54
2017-11-09T05:08:58.134Z,101868.42
2017-11-09T05:11:01.427Z,101874.66
2017-11-09T05:13:04.730Z,101872.89
2017-11-09T05:15:08.118Z,101879.20
2017-11-09T05:17:11.415Z,101876.02
2017-11-09T05:19:14.779Z,101869.77
2017-11-09T05:21:18.109Z,101872.04
2017-11-09T05:23:21.460Z,101866.22
2017-11-09T05:25:24.758Z,101865.30
2017-11-09T05:27:28.079Z,101870.77
2017-11-09T05:29:31.382Z,101879.70
2017-11-09T05:31:34.720Z,101878.86
2017-11-09T05:33:38.110Z,101883.76
2017-11-09T05:35:41.420Z,101891.42
2017-11-09T05:37:45.688Z,101882.91
2017-11-09T05:39:50.031Z,101885.18
2017-11-09T05:41:53.413Z,101884.33
2017-11-09T05:43:56.705Z,101888.38
2017-11-09T05:46:00.026Z,101888.73
2017-11-09T05:48:03.350Z,101888.38
2017-11-09T05:50:06.639Z,101889.30
2017-11-09T05:52:09.969Z,101894.20
2017-11-09T05:54:13.278Z,101895.55
2017-11-09T05:56:16.649Z,101900.44
2017-11-09T05:58:20.003Z,101898.74
2017-11-09T06:00:23.334Z,101892.00
2017-11-09T06:02:26.642Z,101897.39
2017-11-09T06:04:30.014Z,101900.09
2017-11-09T06:06:33.397Z,101900.52
2017-11-09T06:08:37.356Z,101901.44
2017-11-09T06:10:40.693Z,101906.41
2017-11-09T06:12:44.109Z,101905.41
2017-11-09T06:14:47.418Z,101907.69
2017-11-09T06:16:50.774Z,101914.44
2017-11-09T06:18:54.070Z,101920.25
2017-11-09T06:20:57.373Z,101918.98
2017-11-09T06:23:00.739Z,101915.78
2017-11-09T06:25:04.039Z,101919.83
2017-11-09T06:27:07.344Z,101916.28
2017-11-09T06:29:10.681Z,101920.33
2017-11-09T06:31:14.064Z,101920.43
2017-11-09T06:33:17.490Z,101919.48
2017-11-09T06:35:20.818Z,101923.52
2017-11-09T06:37:24.121Z,101919.08
2017-11-09T06:39:27.651Z,101922.28
2017-11-09T06:41:31.028Z,101924.05
2017-11-09T06:43:34.348Z,101929.45
2017-11-09T06:45:37.670Z,101929.02
2017-11-09T06:47:41.098Z,101935.66
2017-11-09T06:49:44.403Z,101943.86
2017-11-09T06:51:47.709Z,101939.32
2017-11-09T06:53:51.101Z,101948.41
2017-11-09T06:55:54.415Z,101946.98
2017-11-09T06:57:57.701Z,101953.31
2017-11-09T07:00:01.097Z,101957.25
2017-11-09T07:02:04.473Z,101957.78
2017-11-09T07:04:07.889Z,101957.85
2017-11-09T07:06:11.319Z,101960.48
2017-11-09T07:08:14.645Z,101963.17
2017-11-09T07:10:17.941Z,101969.39
2017-11-09T07:12:21.389Z,101969.39
2017-11-09T07:14:24.701Z,101973.30
2017-11-09T07:16:28.017Z,101971.45
2017-11-09T07:18:31.394Z,101972.30
2017-11-09T07:20:34.693Z,101971.27
2017-11-09T07:22:38.971Z,101962.67
2017-11-09T07:24:42.353Z,101956.28
2017-11-09T07:26:45.685Z,101958.91
2017-11-09T07:28:48.976Z,101965.90
2017-11-09T07:30:53.202Z,101965.33
2017-11-09T07:32:56.513Z,101966.57
2017-11-09T07:34:59.952Z,101962.88
2017-11-09T07:37:03.366Z,101968.63
2017-11-09T07:39:06.730Z,101973.03
2017-11-09T07:41:11.030Z,101965.25
2017-11-09T07:43:14.346Z,101965.61
2017-11-09T07:45:17.742Z,101966.95
2017-11-09T07:47:21.497Z,101970.83
2017-11-09T07:49:24.831Z,101975.65
2017-11-09T07:51:28.121Z,101970.67
2017-11-09T07:53:31.417Z,101977.77
2017-11-09T07:55:34.972Z,101979.37
2017-11-09T07:57:38.261Z,101977.09
2017-11-09T07:59:41.595Z,101986.47
2017-11-09T08:01:44.973Z,101988.56
2017-11-09T08:03:48.286Z,101989.84
2017-11-09T08:05:51.645Z,101990.63
2017-11-09T08:07:55.059Z,101996.88
2017-11-09T08:09:58.477Z,101998.11
2017-11-09T08:12:01.926Z,102000.74
2017-11-09T08:14:06.125Z,101997.05
2017-11-09T08:16:09.667Z,102006.00
2017-11-09T08:18:13.939Z,102003.12
2017-11-09T08:20:17.740Z,102009.87
2017-11-09T08:22:21.049Z,102009.80
2017-11-09T08:24:25.830Z,102013.34
2017-11-09T08:26:30.808Z,102015.55
2017-11-09T08:28:35.581Z,102017.32
2017-11-09T08:30:42.003Z,102019.91
2017-11-09T08:32:48.312Z,102024.39
2017-11-09T08:34:51.699Z,102027.44
2017-11-09T08:36:58.264Z,102023.81
2017-11-09T08:39:01.720Z,102024.17
2017-11-09T08:41:05.000Z,102029.07
2017-11-09T08:43:08.373Z,102029.07
2017-11-09T08:45:11.799Z,102022.64
2017-11-09T08:47:15.138Z,102019.44
2017-11-09T08:49:18.534Z,102018.02
2017-11-09T08:51:21.946Z,102019.72
2017-11-09T08:53:25.269Z,102017.02
2017-11-09T08:55:28.589Z,102018.72
2017-11-09T08:57:31.897Z,102011.97
2017-11-09T08:59:35.203Z,102010.13
2017-11-09T09:01:38.502Z,102010.05
2017-11-09T09:03:41.893Z,102013.18
2017-11-09T09:05:45.285Z,102014.03
2017-11-09T09:07:48.669Z,102019.43
2017-11-09T09:09:51.993Z,102022.45
2017-11-09T09:11:55.285Z,102018.40
2017-11-09T09:13:58.581Z,102020.60
2017-11-09T09:16:01.902Z,102027.28
2017-11-09T09:18:05.213Z,102030.91
2017-11-09T09:20:08.505Z,102032.60
2017-11-09T09:22:15.428Z,102031.15
2017-11-09T09:24:36.584Z,102031.15
2017-11-09T09:26:40.436Z,102031.15
2017-11-09T09:28:46.189Z,102027.02
2017-11-09T09:30:49.802Z,102029.66
2017-11-09T09:33:14.268Z,102021.05
2017-11-09T09:35:21.246Z,102023.25
2017-11-09T09:37:28.298Z,102024.92
2017-11-09T09:39:35.251Z,102028.90
2017-11-09T09:41:38.592Z,102018.80
2017-11-09T09:43:41.924Z,102016.10
2017-11-09T09:45:45.202Z,102011.88
2017-11-09T09:47:48.534Z,102019.40
2017-11-09T09:49:51.837Z,102016.09
2017-11-09T09:51:55.145Z,102013.74
2017-11-09T09:53:58.479Z,102013.59
2017-11-09T09:56:01.886Z,102014.84
2017-11-09T09:58:05.201Z,102014.70
2017-11-09T10:00:08.522Z,102005.59
2017-11-09T10:02:11.830Z,102009.11
2017-11-09T10:04:15.133Z,102011.16
2017-11-09T10:06:19.374Z,102016.99
2017-11-09T10:08:22.673Z,102022.22
2017-11-09T10:10:26.159Z,102017.66
2017-11-09T10:12:29.527Z,102010.77
2017-11-09T10:14:32.826Z,102016.06
2017-11-09T10:16:36.129Z,102019.53
2017-11-09T10:18:39.457Z,102017.69
2017-11-09T10:20:42.747Z,102013.98
2017-11-09T10:22:46.045Z,102012.03
2017-11-09T10:24:49.380Z,102011.45
2017-11-09T10:26:52.749Z,102003.34
2017-11-09T10:28:56.099Z,102000.97
2017-11-09T10:30:59.430Z,102001.31
2017-11-09T10:33:02.830Z,102005.72
2017-11-09T10:35:06.220Z,102000.74
2017-11-09T10:37:09.611Z,101997.86
2017-11-09T10:39:13.066Z,102000.06
2017-11-09T10:41:16.389Z,101996.01
2017-11-09T10:43:19.746Z,102005.31
2017-11-09T10:45:23.174Z,101999.48
2017-11-09T10:47:26.473Z,101996.70
2017-11-09T10:49:29.910Z,101992.97
2017-11-09T10:51:33.312Z,102003.70
2017-11-09T10:53:36.625Z,102004.13
2017-11-09T10:55:40.034Z,102007.69
2017-11-09T10:57:43.350Z,102004.48
2017-11-09T10:59:46.654Z,102009.35
2017-11-09T11:01:49.972Z,102005.65
2017-11-09T11:03:53.270Z,102002.45
2017-11-09T11:05:56.571Z,102001.02
2017-11-09T11:07:59.935Z,102007.35
2017-11-09T11:10:03.244Z,102004.58
2017-11-09T11:12:06.568Z,102001.88
2017-11-09T11:14:09.904Z,101998.25
2017-11-09T11:16:13.197Z,101996.29
2017-11-09T11:18:16.522Z,101999.84
2017-11-09T11:20:19.837Z,101993.94
2017-11-09T11:22:23.166Z,101995.21
2017-11-09T11:24:26.458Z,101985.14
2017-11-09T11:26:30.240Z,101981.09
2017-11-09T11:28:33.814Z,101983.37
2017-11-09T11:30:37.133Z,101979.74
2017-11-09T11:32:40.460Z,101981.95
2017-11-09T11:34:43.762Z,101981.95
2017-11-09T11:36:47.059Z,101985.22
2017-11-09T11:38:50.449Z,101977.97
2017-11-09T11:40:54.024Z,101971.56
2017-11-09T11:42:57.310Z,101967.66
2017-11-09T11:45:00.640Z,101978.39
2017-11-09T11:47:04.004Z,101973.84
2017-11-09T11:49:07.301Z,101970.70
2017-11-09T11:51:10.643Z,101962.10
2017-11-09T11:53:13.943Z,101961.92
2017-11-09T11:55:17.300Z,101957.86
2017-11-09T11:57:20.617Z,101966.75
2017-11-09T11:59:24.255Z,101964.63
2017-11-09T12:01:27.557Z,101965.06
2017-11-09T12:03:30.892Z,101963.13
2017-11-09T12:05:34.189Z,101970.20
2017-11-09T12:07:37.483Z,101962.88
2017-11-09T12:09:40.901Z,101962.80
2017-11-09T12:11:47.998Z,101955.86
2017-11-09T12:13:51.381Z,101953.92
2017-11-09T12:15:54.765Z,101948.44
2017-11-09T12:17:58.157Z,101947.76
2017-11-09T12:20:01.465Z,101955.21
2017-11-09T12:22:04.905Z,101959.16
2017-11-09T12:24:08.233Z,101964.91
2017-11-09T12:26:11.641Z,101971.91
2017-11-09T12:28:14.954Z,101967.35
2017-11-09T12:30:18.305Z,101961.41
2017-11-09T12:32:21.606Z,101953.72
2017-11-09T12:34:24.994Z,101952.37
2017-11-09T12:36:28.405Z,101945.53
2017-11-09T12:38:31.713Z,101949.05
2017-11-09T12:40:35.124Z,101944.50
2017-11-09T12:42:38.628Z,101940.87
2017-11-09T12:44:41.937Z,101945.84
2017-11-09T12:46:45.261Z,101950.25
2017-11-09T12:48:48.588Z,101952.03
2017-11-09T12:50:51.913Z,101957.86
2017-11-09T12:52:55.243Z,101953.73
2017-11-09T12:54:58.571Z,101956.86
2017-11-09T12:57:01.871Z,101952.80
2017-11-09T12:59:05.233Z,101956.75
2017-11-09T13:01:08.526Z,101954.89
2017-11-09T13:03:11.822Z,101954.39
2017-11-09T13:05:15.166Z,101948.48
2017-11-09T13:07:18.646Z,101939.52
2017-11-09T13:09:21.959Z,101937.59
2017-11-09T13:11:25.284Z,101939.88
2017-11-09T13:13:28.577Z,101945.17
2017-11-09T13:15:31.900Z,101942.07
2017-11-09T13:17:35.258Z,101938.95
2017-11-09T13:19:38.548Z,101944.24
2017-11-09T13:21:41.898Z,101947.05
2017-11-09T13:23:45.527Z,101942.07
2017-11-09T13:25:48.831Z,101946.62
2017-11-09T13:27:52.168Z,101954.73
2017-11-09T13:29:55.499Z,101952.11
2017-11-09T13:31:58.802Z,101952.54
2017-11-09T13:34:02.113Z,101953.89
2017-11-09T13:36:05.466Z,101960.22
2017-11-09T13:38:09.474Z,101964.70
2017-11-09T13:40:13.162Z,101957.52
2017-11-09T13:42:16.526Z,101953.97
2017-11-09T13:44:19.850Z,101949.41
2017-11-09T13:46:23.349Z,101953.04
2017-11-09T13:48:27.596Z,101962.50
2017-11-09T13:50:30.990Z,101962.42
2017-11-09T13:52:34.346Z,101955.74
2017-11-09T13:54:37.842Z,101953.47
2017-11-09T13:56:41.181Z,101948.91
2017-11-09T13:58:44.563Z,101943.08
2017-11-09T14:00:47.971Z,101947.98
2017-11-09T14:02:51.269Z,101959.72
2017-11-09T14:04:54.570Z,101961.50
2017-11-09T14:06:57.892Z,101960.65
2017-11-09T14:09:01.177Z,101973.98
2017-11-09T14:11:10.770Z,101970.45
2017-11-09T14:13:14.162Z,101972.63
2017-11-09T14:15:17.533Z,101975.86
2017-11-09T14:17:20.894Z,101972.20
2017-11-09T14:19:24.250Z,101975.75
2017-11-09T14:21:27.573Z,101963.59
2017-11-09T14:23:30.901Z,101954.12
2017-11-09T14:25:35.197Z,101958.11
2017-11-09T14:27:38.558Z,101953.20
2017-11-09T14:29:41.856Z,101960.39
2017-11-09T14:31:45.198Z,101956.33
2017-11-09T14:33:48.581Z,101951.34
2017-11-09T14:35:51.880Z,101952.70
2017-11-09T14:37:55.253Z,101951.34
2017-11-09T14:39:58.637Z,101949.07
2017-11-09T14:42:01.933Z,101939.61
2017-11-09T14:44:05.318Z,101951.77
2017-11-09T14:46:08.666Z,101951.77
2017-11-09T14:48:12.068Z,101963.02
2017-11-09T14:50:15.573Z,101957.26
2017-11-09T14:52:18.889Z,101961.73
2017-11-09T14:54:22.191Z,101957.18
2017-11-09T14:56:25.569Z,101950.92
2017-11-09T14:58:28.913Z,101946.44
2017-11-09T15:00:32.344Z,101943.74
2017-11-09T15:02:35.751Z,101948.72
2017-11-09T15:04:39.133Z,101950.08
2017-11-09T15:06:42.518Z,101954.23
2017-11-09T15:08:46.610Z,101953.70
2017-11-09T15:10:49.941Z,101955.48
2017-11-09T15:12:53.237Z,101951.42
2017-11-09T15:14:56.613Z,101945.52
2017-11-09T15:16:59.919Z,101935.63
2017-11-09T15:19:03.213Z,101938.76
2017-11-09T15:21:06.543Z,101934.28
2017-11-09T15:23:09.850Z,101932.50
2017-11-09T15:25:13.235Z,101930.22
2017-11-09T15:27:16.589Z,101925.85
2017-11-09T15:29:19.885Z,101934.78
2017-11-09T15:31:23.193Z,101933.54
2017-11-09T15:33:26.529Z,101934.36
2017-11-09T15:35:29.910Z,101939.77
2017-11-09T15:37:33.211Z,101936.66
2017-11-09T15:39:36.536Z,101937.48
2017-11-09T15:41:39.841Z,101939.38
2017-11-09T15:43:43.256Z,101942.89
2017-11-09T15:45:46.665Z,101938.41
2017-11-09T15:47:50.254Z,101920.84
2017-11-09T15:49:53.554Z,101924.81
2017-11-09T15:51:56.943Z,101925.42
2017-11-09T15:54:00.342Z,101923.15
2017-11-09T15:56:03.635Z,101919.09
2017-11-09T15:58:06.970Z,101924.89
2017-11-09T16:00:10.269Z,101923.97
2017-11-09T16:02:13.574Z,101925.31
2017-11-09T16:04:16.891Z,101920.84
2017-11-09T16:06:20.191Z,101922.80
2017-11-09T16:08:23.513Z,101924.23
2017-11-09T16:10:26.861Z,101918.40
2017-11-09T16:12:30.259Z,101914.84
2017-11-09T16:14:33.561Z,101913.69
2017-11-09T16:16:36.877Z,101918.66
2017-11-09T16:18:43.001Z,101906.58
2017-11-09T16:20:46.545Z,101902.59
2017-11-09T16:22:49.964Z,101905.80
2017-11-09T16:24:53.245Z,101913.59
2017-11-09T16:26:57.383Z,101912.33
2017-11-09T16:29:06.144Z,101907.89
2017-11-09T16:31:09.435Z,101911.20
2017-11-09T16:33:12.886Z,101911.20
2017-11-09T16:35:16.229Z,101913.63
2017-11-09T16:37:19.523Z,101916.52
2017-11-09T16:39:22.838Z,101913.89
2017-11-09T16:41:26.170Z,101904.52
2017-11-09T16:43:29.468Z,101910.11
2017-11-09T16:45:32.773Z,101907.91
2017-11-09T16:47:36.146Z,101907.48
2017-11-09T16:49:39.665Z,101903.08
2017-11-09T16:51:42.990Z,101902.66
2017-11-09T16:53:46.388Z,101906.89
2017-11-09T16:55:49.680Z,101920.48
2017-11-09T16:57:52.998Z,101915.08
2017-11-09T16:59:56.355Z,101912.95
2017-11-09T17:01:59.638Z,101917.43
2017-11-09T17:04:03.007Z,101917.93
2017-11-09T17:06:10.211Z,101911.71
2017-11-09T17:08:13.505Z,101915.41
2017-11-09T17:10:16.897Z,101915.91
2017-11-09T17:12:20.254Z,101923.17
2017-11-09T17:14:23.585Z,101925.03
2017-11-09T17:16:26.968Z,101919.73
2017-11-09T17:18:34.289Z,101917.53
2017-11-09T17:20:37.585Z,101921.66
2017-11-09T17:22:40.887Z,101928.41
2017-11-09T17:24:44.207Z,101935.25
2017-11-09T17:26:51.358Z,101929.92
2017-11-09T17:28:54.688Z,101922.00
2017-11-09T17:30:58.041Z,101917.59
2017-11-09T17:33:01.376Z,101920.80
2017-11-09T17:35:04.693Z,101925.34
2017-11-09T17:37:08.025Z,101914.66
2017-11-09T17:39:11.347Z,101907.47
2017-11-09T17:41:15.689Z,101904.84
2017-11-09T17:43:19.015Z,101906.62
2017-11-09T17:45:22.363Z,101910.44
2017-11-09T17:47:25.731Z,101914.30
2017-11-09T17:49:29.080Z,101914.98
2017-11-09T17:51:32.479Z,101912.36
2017-11-09T17:53:35.792Z,101910.16
2017-11-09T17:55:39.112Z,101926.38
2017-11-09T17:57:42.438Z,101926.02
2017-11-09T17:59:51.462Z,101933.70
2017-11-09T18:01:54.858Z,101937.44
2017-11-09T18:03:58.182Z,101938.87
2017-11-09T18:06:01.590Z,101933.46
2017-11-09T18:08:04.982Z,101934.47
2017-11-09T18:10:08.276Z,101941.72
2017-11-09T18:12:11.600Z,101946.30
2017-11-09T18:14:14.945Z,101947.30
2017-11-09T18:16:18.330Z,101943.25
2017-11-09T18:18:21.657Z,101946.45
2017-11-09T18:20:27.906Z,101945.61
2017-11-09T18:22:37.072Z,101950.69
2017-11-09T18:24:40.377Z,101959.80
2017-11-09T18:26:44.006Z,101952.27
2017-11-09T18:28:47.314Z,101945.59
2017-11-09T18:30:50.645Z,101957.43
2017-11-09T18:32:54.036Z,101960.62
2017-11-09T18:34:57.334Z,101965.25
2017-11-09T18:37:00.740Z,101967.03
2017-11-09T18:39:04.147Z,101970.77
2017-11-09T18:41:07.531Z,101969.06
2017-11-09T18:43:10.826Z,101966.86
2017-11-09T18:45:14.149Z,101970.56
2017-11-09T18:47:17.633Z,101980.52
2017-11-09T18:49:20.942Z,101982.40
2017-11-09T18:51:24.280Z,101974.80
2017-11-09T18:53:27.830Z,101974.80
2017-11-09T18:55:31.223Z,101969.97
2017-11-09T18:57:34.663Z,101974.95
2017-11-09T18:59:38.157Z,101963.83
2017-11-09T19:01:41.719Z,101959.42
2017-11-09T19:03:45.035Z,101964.83
2017-11-09T19:05:48.416Z,101965.25
2017-11-09T19:07:51.726Z,101962.20
2017-11-09T19:09:55.121Z,101966.75
2017-11-09T19:11:58.515Z,101963.13
2017-11-09T19:14:01.813Z,101968.53
2017-11-09T19:16:05.193Z,101966.01
2017-11-09T19:18:08.569Z,101966.08
2017-11-09T19:20:11.872Z,101958.41
2017-11-09T19:22:15.199Z,101952.66
2017-11-09T19:24:18.502Z,101947.75
2017-11-09T19:26:21.812Z,101938.80
2017-11-09T19:28:25.137Z,101935.28
2017-11-09T19:30:28.494Z,101929.95
2017-11-09T19:32:31.794Z,101931.30
2017-11-09T19:34:35.150Z,101929.60
2017-11-09T19:36:38.469Z,101927.41
2017-11-09T19:38:41.785Z,101930.10
2017-11-09T19:40:45.161Z,101924.39
2017-11-09T19:42:48.855Z,101923.03
2017-11-09T19:44:52.434Z,101935.27
2017-11-09T19:46:56.852Z,101934.84
2017-11-09T19:49:00.651Z,101943.86
2017-11-09T19:51:04.454Z,101948.84
2017-11-09T19:53:07.873Z,101951.97
2017-11-09T19:55:11.284Z,101947.06
2017-11-09T19:57:14.806Z,101949.77
2017-11-09T19:59:18.175Z,101944.86
2017-11-09T20:01:21.558Z,101948.41
2017-11-09T20:03:24.851Z,101947.14
2017-11-09T20:05:28.178Z,101947.64
2017-11-09T20:07:31.481Z,101939.96
2017-11-09T20:09:34.790Z,101946.82
2017-11-09T20:11:38.201Z,101944.12
2017-11-09T20:13:41.502Z,101944.02
2017-11-09T20:15:44.809Z,101940.99
2017-11-09T20:17:48.114Z,101940.14
2017-11-09T20:19:51.464Z,101939.72
2017-11-09T20:21:54.754Z,101937.52
2017-11-09T20:23:58.078Z,101941.06
2017-11-09T20:26:01.393Z,101937.09
2017-11-09T20:28:04.723Z,101936.24
2017-11-09T20:30:08.075Z,101929.48
2017-11-09T20:32:11.352Z,101928.14
2017-11-09T20:34:14.645Z,101921.07
2017-11-09T20:36:17.952Z,101917.45
2017-11-09T20:38:21.245Z,101917.84
2017-11-09T20:40:24.545Z,101913.47
2017-11-09T20:42:27.863Z,101905.45
2017-11-09T20:44:31.162Z,101907.22
2017-11-09T20:46:34.458Z,101902.32
2017-11-09T20:48:38.736Z,101904.59
2017-11-09T20:50:42.029Z,101896.50
2017-11-09T20:52:45.462Z,101905.09
2017-11-09T20:54:48.770Z,101908.72
2017-11-09T20:56:52.442Z,101913.20
2017-11-09T20:58:55.740Z,101908.30
2017-11-09T21:00:59.058Z,101907.48
2017-11-09T21:03:02.372Z,101903.85
2017-11-09T21:05:05.657Z,101896.75
2017-11-09T21:07:09.025Z,101903.93
2017-11-09T21:09:12.313Z,101892.70
2017-11-09T21:11:15.608Z,101888.73
2017-11-09T21:13:18.922Z,101902.66
2017-11-09T21:15:22.210Z,101902.66
2017-11-09T21:17:25.501Z,101910.41
2017-11-09T21:19:29.306Z,101904.50
2017-11-09T21:21:32.702Z,101903.23
2017-11-09T21:23:36.007Z,101900.95
2017-11-09T21:25:39.382Z,101905.50
2017-11-09T21:27:42.777Z,101897.02
2017-11-09T21:29:46.073Z,101900.64
2017-11-09T21:31:49.392Z,101897.52
2017-11-09T21:33:52.689Z,101904.69
2017-11-09T21:35:55.990Z,101915.98
2017-11-09T21:37:59.333Z,101909.31
2017-11-09T21:40:02.619Z,101907.03
2017-11-09T21:42:06.005Z,101890.06
2017-11-09T21:44:09.402Z,101890.06
2017-11-09T21:46:12.702Z,101892.76
2017-11-09T21:48:16.002Z,101885.16
2017-11-09T21:50:19.327Z,101880.61
2017-11-09T21:52:22.653Z,101880.27
2017-11-09T21:54:26.045Z,101885.66
2017-11-09T21:56:29.360Z,101885.73
2017-11-09T21:58:32.789Z,101881.27
2017-11-09T22:00:36.079Z,101877.21
2017-11-09T22:02:39.422Z,101869.61
2017-11-09T22:04:42.709Z,101864.21
2017-11-09T22:06:46.001Z,101859.81
2017-11-09T22:08:49.318Z,101854.84
2017-11-09T22:10:52.672Z,101851.72
2017-11-09T22:12:55.966Z,101856.69
2017-11-09T22:14:59.277Z,101848.20
2017-11-09T22:17:02.565Z,101841.45
2017-11-09T22:19:05.963Z,101837.41
2017-11-09T22:21:09.326Z,101850.05
2017-11-09T22:23:12.680Z,101848.59
2017-11-09T22:25:15.971Z,101844.16
2017-11-09T22:27:19.278Z,101837.41
2017-11-09T22:29:22.574Z,101838.91
2017-11-09T22:31:25.972Z,101832.58
2017-11-09T22:33:29.293Z,101834.85
2017-11-09T22:35:32.754Z,101828.10
2017-11-09T22:37:36.054Z,101837.63
2017-11-09T22:39:39.360Z,101832.16
2017-11-09T22:41:42.653Z,101824.62
2017-11-09T22:43:45.945Z,101817.98
2017-11-09T22:45:49.267Z,101816.11
2017-11-09T22:47:52.615Z,101810.31
2017-11-09T22:49:55.901Z,101822.86
2017-11-09T22:51:59.223Z,101836.88
2017-11-09T22:54:02.512Z,101825.23
2017-11-09T22:56:05.847Z,101838.73
2017-11-09T22:58:10.178Z,101834.69
2017-11-09T23:00:13.521Z,101835.61
2017-11-09T23:02:16.844Z,101825.73
2017-11-09T23:04:20.166Z,101829.78
2017-11-09T23:06:23.466Z,101824.46
2017-11-09T23:08:26.765Z,101826.23
2017-11-09T23:10:30.089Z,101819.99
2017-11-09T23:12:33.377Z,101812.81
2017-11-09T23:14:36.673Z,101814.16
2017-11-09T23:16:40.000Z,101814.66
2017-11-09T23:18:43.295Z,101816.02
2017-11-09T23:20:46.588Z,101816.02
2017-11-09T23:22:49.907Z,101819.56
2017-11-09T23:24:53.206Z,101831.28
2017-11-09T23:26:56.535Z,101833.67
2017-11-09T23:28:59.913Z,101819.14